Roy, Utah
Current Conditions -  °F | °C
As of 12:28 AM on Saturday 20 Dec 2014 (Local Time) from KOGD Reporting Station
Light Rain Light Rain  
Wind Chill: 31°   Ceiling: 3900
Heat Index: 37°   Visibility: 9mi
Dew Point: 35°   Wind: 8mph
Humidity: 93%   Direction: 170°S
Pressure: 30.13"   Gusts: NA
Location:  41.17°N, 112.02°W
Report Text: KOGD 200728Z AUTO 17007KT 9SM -RA SCT028 OVC039 03/02 A3013 RMK AO2 P0000 T00280017 TSNO
Loading
Personal Weather Stations






























Interactive Weather Map New forecast layout! Learn more

10-Day Weather Forecast

Advertisements
Track Severe Weather on mobile